createdAt,value
2022-12-11T00:00:02.789Z,11.10
2022-12-11T00:01:02.785Z,11.30
2022-12-11T00:02:02.837Z,11.10
2022-12-11T00:03:02.865Z,10.70
2022-12-11T00:04:02.765Z,10.90
2022-12-11T00:05:02.760Z,11.40
2022-12-11T00:06:02.759Z,11.00
2022-12-11T00:07:02.751Z,11.00
2022-12-11T00:08:02.840Z,10.50
2022-12-11T00:09:02.746Z,11.20
2022-12-11T00:10:02.732Z,11.10
2022-12-11T00:11:02.730Z,11.10
2022-12-11T00:12:02.721Z,10.80
2022-12-11T00:13:02.719Z,11.20
2022-12-11T00:14:02.713Z,10.70
2022-12-11T00:15:02.708Z,11.60
2022-12-11T00:16:02.696Z,11.00
2022-12-11T00:17:02.766Z,10.70
2022-12-11T00:18:02.688Z,10.80
2022-12-11T00:19:02.713Z,11.10
2022-12-11T00:20:02.677Z,11.50
2022-12-11T00:21:02.673Z,10.90
2022-12-11T00:22:02.665Z,10.30
2022-12-11T00:23:02.662Z,10.80
2022-12-11T00:24:02.652Z,10.60
2022-12-11T00:25:02.653Z,11.00
2022-12-11T00:26:02.639Z,11.30
2022-12-11T00:27:02.648Z,11.20
2022-12-11T00:28:02.632Z,11.10
2022-12-11T00:29:02.625Z,11.40
2022-12-11T00:30:02.619Z,11.30
2022-12-11T00:31:02.614Z,11.50
2022-12-11T00:32:02.660Z,11.40
2022-12-11T00:33:02.611Z,11.40
2022-12-11T00:34:02.596Z,11.30
2022-12-11T00:35:02.616Z,11.40
2022-12-11T00:36:02.586Z,11.40
2022-12-11T00:37:02.623Z,11.10
2022-12-11T00:38:02.570Z,11.30
2022-12-11T00:39:02.572Z,11.00
2022-12-11T00:40:02.564Z,11.00
2022-12-11T00:41:02.565Z,11.70
2022-12-11T00:42:02.564Z,11.00
2022-12-11T00:43:02.550Z,11.30
2022-12-11T00:44:02.537Z,11.00
2022-12-11T00:45:02.534Z,11.00
2022-12-11T00:46:02.588Z,11.40
2022-12-11T00:47:02.529Z,11.60
2022-12-11T00:48:02.516Z,11.20
2022-12-11T00:49:02.517Z,11.10
2022-12-11T00:50:02.509Z,11.30
2022-12-11T00:51:02.552Z,11.40
2022-12-11T00:52:02.494Z,11.60
2022-12-11T00:53:02.494Z,11.20
2022-12-11T00:54:02.483Z,11.30
2022-12-11T00:55:02.479Z,12.00
2022-12-11T00:56:02.474Z,12.00
2022-12-11T00:57:02.471Z,11.60
2022-12-11T00:58:02.461Z,12.30
2022-12-11T00:59:02.455Z,12.50
2022-12-11T01:00:02.469Z,11.30
2022-12-11T01:01:02.502Z,11.60
2022-12-11T01:02:02.441Z,11.90
2022-12-11T01:03:02.603Z,11.20
2022-12-11T01:04:02.431Z,11.60
2022-12-11T01:05:02.423Z,11.70
2022-12-11T01:06:02.421Z,11.80
2022-12-11T01:07:02.451Z,11.60
2022-12-11T01:08:02.443Z,11.30
2022-12-11T01:09:02.404Z,11.80
2022-12-11T01:10:02.396Z,11.50
2022-12-11T01:11:02.395Z,11.90
2022-12-11T01:12:02.381Z,12.20
2022-12-11T01:13:02.389Z,11.70
2022-12-11T01:14:02.376Z,11.30
2022-12-11T01:15:02.365Z,11.60
2022-12-11T01:16:02.363Z,11.60
2022-12-11T01:17:02.426Z,11.70
2022-12-11T01:18:02.347Z,11.80
2022-12-11T01:19:02.377Z,11.80
2022-12-11T01:20:02.340Z,11.70
2022-12-11T01:21:02.330Z,12.60
2022-12-11T01:22:02.328Z,11.80
2022-12-11T01:23:02.354Z,11.50
2022-12-11T01:24:02.316Z,11.60
2022-12-11T01:25:02.310Z,11.70
2022-12-11T01:26:02.303Z,11.60
2022-12-11T01:27:02.299Z,11.80
2022-12-11T01:28:02.293Z,11.60
2022-12-11T01:29:02.293Z,12.00
2022-12-11T01:30:02.282Z,11.90
2022-12-11T01:31:02.314Z,11.90
2022-12-11T01:32:02.269Z,12.00
2022-12-11T01:33:02.272Z,11.80
2022-12-11T01:34:02.263Z,11.30
2022-12-11T01:35:02.255Z,11.70
2022-12-11T01:36:02.247Z,12.00
2022-12-11T01:37:02.247Z,11.70
2022-12-11T01:38:02.232Z,11.50
2022-12-11T01:39:02.252Z,11.50
2022-12-11T01:40:02.230Z,12.00
2022-12-11T01:41:02.224Z,11.40
2022-12-11T01:42:02.220Z,11.50
2022-12-11T01:43:02.215Z,12.30
2022-12-11T01:44:02.200Z,11.80
2022-12-11T01:45:02.202Z,11.50
2022-12-11T01:46:02.282Z,11.60
2022-12-11T01:47:02.190Z,11.50
2022-12-11T01:48:02.181Z,11.90
2022-12-11T01:49:02.173Z,12.00
2022-12-11T01:50:02.194Z,11.60
2022-12-11T01:51:02.165Z,12.30
2022-12-11T01:52:02.159Z,11.40
2022-12-11T01:53:02.163Z,11.60
2022-12-11T01:54:02.152Z,12.20
2022-12-11T01:55:02.165Z,11.30
2022-12-11T01:56:02.138Z,11.90
2022-12-11T01:57:02.143Z,11.70
2022-12-11T01:58:02.127Z,11.00
2022-12-11T01:59:02.120Z,11.40
2022-12-11T02:00:02.116Z,11.20
2022-12-11T02:01:02.203Z,11.20
2022-12-11T02:02:02.159Z,11.60
2022-12-11T02:03:02.103Z,11.20
2022-12-11T02:04:02.092Z,10.90
2022-12-11T02:05:02.083Z,11.40
2022-12-11T02:06:02.076Z,11.90
2022-12-11T02:07:02.075Z,11.30
2022-12-11T02:08:02.151Z,11.20
2022-12-11T02:09:02.072Z,11.50
2022-12-11T02:10:02.053Z,10.90
2022-12-11T02:11:02.084Z,11.90
2022-12-11T02:12:02.047Z,11.70
2022-12-11T02:13:02.043Z,11.50
2022-12-11T02:14:02.033Z,11.20
2022-12-11T02:15:02.028Z,11.60
2022-12-11T02:16:02.101Z,11.30
2022-12-11T02:17:02.027Z,11.50
2022-12-11T02:18:02.017Z,11.50
2022-12-11T02:19:02.008Z,11.40
2022-12-11T02:20:02.005Z,11.30
2022-12-11T02:21:01.998Z,11.00
2022-12-11T02:22:01.990Z,11.70
2022-12-11T02:23:01.978Z,11.30
2022-12-11T02:24:01.974Z,11.30
2022-12-11T02:25:01.975Z,11.10
2022-12-11T02:26:01.968Z,11.30
2022-12-11T02:27:01.979Z,12.30
2022-12-11T02:28:01.956Z,11.70
2022-12-11T02:29:01.952Z,11.20
2022-12-11T02:30:01.957Z,12.80
2022-12-11T02:31:02.018Z,11.50
2022-12-11T02:32:01.931Z,11.40
2022-12-11T02:33:01.933Z,11.60
2022-12-11T02:34:01.920Z,11.70
2022-12-11T02:35:01.920Z,11.40
2022-12-11T02:36:01.907Z,11.70
2022-12-11T02:37:01.904Z,13.20
2022-12-11T02:38:01.906Z,11.90
2022-12-11T02:39:01.893Z,11.50
2022-12-11T02:40:01.889Z,11.70
2022-12-11T02:41:01.882Z,11.60
2022-12-11T02:42:01.875Z,11.30
2022-12-11T02:43:01.889Z,11.70
2022-12-11T02:44:01.867Z,11.40
2022-12-11T02:45:01.861Z,12.00
2022-12-11T02:46:01.937Z,11.60
2022-12-11T02:47:01.851Z,10.80
2022-12-11T02:48:01.841Z,11.80
2022-12-11T02:49:01.836Z,11.90
2022-12-11T02:50:01.831Z,11.90
2022-12-11T02:51:01.824Z,11.90
2022-12-11T02:52:01.820Z,11.70
2022-12-11T02:53:01.814Z,11.40
2022-12-11T02:54:01.813Z,11.70
2022-12-11T02:55:01.804Z,11.00
2022-12-11T02:56:01.795Z,11.80
2022-12-11T02:57:01.801Z,11.30
2022-12-11T02:58:01.787Z,11.80
2022-12-11T02:59:01.805Z,12.00
2022-12-11T03:00:01.773Z,12.00
2022-12-11T03:01:01.870Z,12.40
2022-12-11T03:02:01.802Z,12.10
2022-12-11T03:03:01.762Z,12.50
2022-12-11T03:04:01.755Z,12.10
2022-12-11T03:05:01.751Z,12.00
2022-12-11T03:06:01.744Z,12.60
2022-12-11T03:07:01.737Z,12.40
2022-12-11T03:08:01.758Z,12.30
2022-12-11T03:09:01.721Z,13.40
2022-12-11T03:10:01.726Z,12.50
2022-12-11T03:11:01.708Z,12.30
2022-12-11T03:12:01.709Z,12.40
2022-12-11T03:13:01.697Z,12.30
2022-12-11T03:14:01.695Z,12.60
2022-12-11T03:15:01.709Z,13.00
2022-12-11T03:16:01.746Z,12.30
2022-12-11T03:17:01.675Z,12.20
2022-12-11T03:18:01.678Z,12.00
2022-12-11T03:19:01.667Z,12.80
2022-12-11T03:20:01.662Z,12.40
2022-12-11T03:21:01.657Z,12.10
2022-12-11T03:22:01.651Z,11.70
2022-12-11T03:23:01.653Z,11.80
2022-12-11T03:24:02.771Z,11.90
2022-12-11T03:25:01.629Z,12.10
2022-12-11T03:26:01.636Z,12.10
2022-12-11T03:27:02.792Z,11.80
2022-12-11T03:28:01.618Z,11.70
2022-12-11T03:29:01.610Z,11.80
2022-12-11T03:30:01.606Z,11.40
2022-12-11T03:31:01.704Z,11.50
2022-12-11T03:32:01.597Z,11.60
2022-12-11T03:33:01.587Z,12.30
2022-12-11T03:34:01.585Z,11.40
2022-12-11T03:35:01.574Z,11.70
2022-12-11T03:36:01.574Z,11.90
2022-12-11T03:37:01.570Z,11.50
2022-12-11T03:38:01.562Z,11.70
2022-12-11T03:39:01.550Z,12.00
2022-12-11T03:40:01.550Z,11.50
2022-12-11T03:41:01.542Z,11.70
2022-12-11T03:42:01.538Z,12.00
2022-12-11T03:43:01.532Z,11.70
2022-12-11T03:44:01.526Z,11.10
2022-12-11T03:45:01.519Z,12.10
2022-12-11T03:46:01.594Z,12.90
2022-12-11T03:47:01.532Z,12.50
2022-12-11T03:48:01.510Z,11.80
2022-12-11T03:49:01.501Z,11.90
2022-12-11T03:50:01.497Z,14.30
2022-12-11T03:51:01.484Z,12.20
2022-12-11T03:52:01.484Z,12.10
2022-12-11T03:53:01.470Z,12.00
2022-12-11T03:54:01.474Z,11.90
2022-12-11T03:55:01.465Z,11.60
2022-12-11T03:56:01.463Z,12.10
2022-12-11T03:57:01.452Z,12.10
2022-12-11T03:58:01.453Z,12.20
2022-12-11T03:59:01.440Z,11.90
2022-12-11T04:00:01.436Z,12.30
2022-12-11T04:01:01.431Z,11.90
2022-12-11T04:02:01.492Z,12.30
2022-12-11T04:03:01.438Z,11.80
2022-12-11T04:04:01.500Z,11.80
2022-12-11T04:05:01.403Z,11.90
2022-12-11T04:06:01.404Z,12.10
2022-12-11T04:07:01.399Z,11.60
2022-12-11T04:08:01.446Z,12.20
2022-12-11T04:09:01.380Z,12.70
2022-12-11T04:10:01.388Z,12.10
2022-12-11T04:11:01.371Z,12.50
2022-12-11T04:12:01.369Z,12.40
2022-12-11T04:13:01.364Z,12.70
2022-12-11T04:14:01.364Z,12.20
2022-12-11T04:15:01.347Z,12.10
2022-12-11T04:16:01.369Z,12.50
2022-12-11T04:17:01.334Z,12.30
2022-12-11T04:18:01.335Z,12.30
2022-12-11T04:19:01.343Z,11.80
2022-12-11T04:20:01.324Z,12.80
2022-12-11T04:21:01.315Z,12.00
2022-12-11T04:22:01.314Z,12.80
2022-12-11T04:23:01.304Z,12.50
2022-12-11T04:24:01.302Z,12.30
2022-12-11T04:25:01.291Z,12.40
2022-12-11T04:26:01.288Z,12.30
2022-12-11T04:27:01.282Z,11.90
2022-12-11T04:28:01.278Z,12.10
2022-12-11T04:29:01.267Z,12.30
2022-12-11T04:30:01.267Z,12.50
2022-12-11T04:31:01.289Z,12.30
2022-12-11T04:32:01.259Z,12.30
2022-12-11T04:33:01.249Z,12.40
2022-12-11T04:34:01.344Z,12.20
2022-12-11T04:35:01.249Z,11.90
2022-12-11T04:36:01.237Z,11.90
2022-12-11T04:37:01.227Z,11.90
2022-12-11T04:38:01.224Z,12.50
2022-12-11T04:39:01.212Z,12.80
2022-12-11T04:40:01.207Z,12.40
2022-12-11T04:41:01.199Z,12.60
2022-12-11T04:42:01.198Z,12.90
2022-12-11T04:43:01.189Z,12.60
2022-12-11T04:44:01.189Z,12.40
2022-12-11T04:45:01.176Z,12.30
2022-12-11T04:46:01.198Z,11.40
2022-12-11T04:47:01.165Z,12.50
2022-12-11T04:48:01.166Z,11.90
2022-12-11T04:49:01.161Z,12.10
2022-12-11T04:50:01.152Z,12.70
2022-12-11T04:51:01.163Z,12.00
2022-12-11T04:52:01.145Z,12.00
2022-12-11T04:53:01.132Z,12.10
2022-12-11T04:54:01.133Z,12.50
2022-12-11T04:55:01.121Z,11.70
2022-12-11T04:56:01.117Z,11.60
2022-12-11T04:57:01.106Z,12.20
2022-12-11T04:58:01.112Z,11.70
2022-12-11T04:59:01.096Z,11.80
2022-12-11T05:00:01.095Z,11.80
2022-12-11T05:01:01.085Z,12.50
2022-12-11T05:02:01.129Z,11.90
2022-12-11T05:03:01.109Z,11.50
2022-12-11T05:04:01.073Z,12.40
2022-12-11T05:05:01.064Z,11.10
2022-12-11T05:06:01.066Z,11.30
2022-12-11T05:07:01.077Z,11.20
2022-12-11T05:08:01.143Z,11.50
2022-12-11T05:09:01.047Z,11.70
2022-12-11T05:10:01.037Z,10.90
2022-12-11T05:11:01.037Z,11.50
2022-12-11T05:12:01.029Z,10.90
2022-12-11T05:13:01.018Z,11.20
2022-12-11T05:14:01.016Z,11.60
2022-12-11T05:15:01.012Z,11.60
2022-12-11T05:16:01.044Z,11.00
2022-12-11T05:17:00.996Z,11.20
2022-12-11T05:18:00.992Z,12.00
2022-12-11T05:19:00.986Z,11.40
2022-12-11T05:20:00.983Z,11.00
2022-12-11T05:21:00.972Z,11.10
2022-12-11T05:22:00.975Z,11.50
2022-12-11T05:23:01.034Z,11.60
2022-12-11T05:24:00.960Z,11.70
2022-12-11T05:25:00.955Z,11.80
2022-12-11T05:26:00.950Z,10.90
2022-12-11T05:27:00.938Z,11.40
2022-12-11T05:28:00.936Z,11.00
2022-12-11T05:29:00.928Z,11.20
2022-12-11T05:30:00.923Z,11.20
2022-12-11T05:31:00.991Z,11.20
2022-12-11T05:32:00.911Z,11.00
2022-12-11T05:33:00.910Z,11.30
2022-12-11T05:34:00.903Z,11.30
2022-12-11T05:35:00.890Z,11.10
2022-12-11T05:36:00.889Z,11.50
2022-12-11T05:37:00.878Z,11.80
2022-12-11T05:38:00.877Z,12.30
2022-12-11T05:39:00.894Z,11.60
2022-12-11T05:40:00.860Z,11.60
2022-12-11T05:41:00.857Z,11.80
2022-12-11T05:42:00.855Z,11.20
2022-12-11T05:43:00.851Z,11.30
2022-12-11T05:44:00.841Z,11.90
2022-12-11T05:45:00.833Z,11.40
2022-12-11T05:46:00.832Z,12.20
2022-12-11T05:47:00.882Z,11.80
2022-12-11T05:48:00.817Z,12.00
2022-12-11T05:49:00.810Z,11.80
2022-12-11T05:50:00.810Z,11.40
2022-12-11T05:51:00.799Z,11.80
2022-12-11T05:52:00.799Z,11.70
2022-12-11T05:53:00.789Z,11.30
2022-12-11T05:54:00.787Z,11.80
2022-12-11T05:55:00.797Z,12.10
2022-12-11T05:56:00.782Z,11.70
2022-12-11T05:57:00.766Z,11.70
2022-12-11T05:58:00.762Z,11.70
2022-12-11T05:59:00.753Z,11.50
2022-12-11T06:00:00.756Z,11.20
2022-12-11T06:01:00.744Z,11.70
2022-12-11T06:02:00.892Z,11.70
2022-12-11T06:03:00.863Z,12.50
2022-12-11T06:04:00.728Z,12.60
2022-12-11T06:05:00.726Z,12.10
2022-12-11T06:06:00.719Z,11.50
2022-12-11T06:07:00.703Z,11.30
2022-12-11T06:08:00.773Z,11.60
2022-12-11T06:09:00.692Z,11.40
2022-12-11T06:10:00.695Z,11.10
2022-12-11T06:11:00.705Z,11.30
2022-12-11T06:12:00.700Z,10.40
2022-12-11T06:13:00.670Z,10.80
2022-12-11T06:14:00.675Z,10.90
2022-12-11T06:15:00.664Z,11.30
2022-12-11T06:16:00.737Z,11.20
2022-12-11T06:17:00.648Z,10.90
2022-12-11T06:18:00.648Z,11.10
2022-12-11T06:19:00.641Z,11.60
2022-12-11T06:20:00.635Z,11.30
2022-12-11T06:21:00.624Z,11.50
2022-12-11T06:22:00.623Z,11.50
2022-12-11T06:23:00.612Z,12.20
2022-12-11T06:24:00.611Z,11.30
2022-12-11T06:25:00.609Z,11.70
2022-12-11T06:26:00.601Z,11.40
2022-12-11T06:27:00.617Z,11.30
2022-12-11T06:28:00.591Z,11.70
2022-12-11T06:29:00.582Z,11.20
2022-12-11T06:30:00.577Z,11.80
2022-12-11T06:31:00.567Z,11.90
2022-12-11T06:32:00.637Z,11.60
2022-12-11T06:33:00.571Z,11.70
2022-12-11T06:34:00.553Z,11.50
2022-12-11T06:35:00.548Z,11.60
2022-12-11T06:36:00.541Z,11.40
2022-12-11T06:37:00.539Z,12.10
2022-12-11T06:38:00.535Z,10.80
2022-12-11T06:39:00.523Z,10.80
2022-12-11T06:40:00.524Z,11.10
2022-12-11T06:41:00.511Z,11.30
2022-12-11T06:42:00.512Z,10.80
2022-12-11T06:43:00.521Z,10.30
2022-12-11T06:44:00.492Z,11.20
2022-12-11T06:45:00.483Z,11.10
2022-12-11T06:46:03.795Z,10.20
2022-12-11T06:47:00.473Z,11.00
2022-12-11T06:48:00.476Z,11.70
2022-12-11T06:49:00.463Z,11.20
2022-12-11T06:50:00.461Z,11.00
2022-12-11T06:51:00.456Z,11.40
2022-12-11T06:52:00.453Z,11.20
2022-12-11T06:53:00.449Z,10.80
2022-12-11T06:54:00.519Z,10.50
2022-12-11T06:55:00.433Z,10.90
2022-12-11T06:56:00.426Z,10.60
2022-12-11T06:57:00.419Z,10.40
2022-12-11T06:58:00.414Z,10.60
2022-12-11T06:59:05.683Z,10.40
2022-12-11T07:00:00.402Z,10.60
2022-12-11T07:01:00.412Z,10.50
2022-12-11T07:02:00.454Z,10.80
2022-12-11T07:03:00.385Z,10.20
2022-12-11T07:04:00.379Z,10.40
2022-12-11T07:05:00.372Z,9.90
2022-12-11T07:06:00.366Z,10.10
2022-12-11T07:07:00.357Z,10.40
2022-12-11T07:08:00.399Z,9.90
2022-12-11T07:09:00.352Z,10.40
2022-12-11T07:10:07.299Z,10.60
2022-12-11T07:11:00.334Z,10.20
2022-12-11T07:12:00.334Z,10.40
2022-12-11T07:13:00.320Z,10.30
2022-12-11T07:14:00.321Z,11.50
2022-12-11T07:15:00.331Z,10.70
2022-12-11T07:16:00.306Z,11.60
2022-12-11T07:17:00.302Z,10.00
2022-12-11T07:18:00.297Z,10.50
2022-12-11T07:19:00.292Z,10.70
2022-12-11T07:20:00.297Z,10.30
2022-12-11T07:21:00.281Z,10.80
2022-12-11T07:22:00.275Z,10.50
2022-12-11T07:23:00.263Z,10.20
2022-12-11T07:24:00.263Z,10.00
2022-12-11T07:25:00.252Z,10.20
2022-12-11T07:26:00.249Z,10.50
2022-12-11T07:27:00.240Z,9.90
2022-12-11T07:28:00.234Z,9.70
2022-12-11T07:29:00.231Z,10.50
2022-12-11T07:30:00.223Z,9.40
2022-12-11T07:31:00.248Z,9.30
2022-12-11T07:32:00.537Z,10.20
2022-12-11T07:33:00.246Z,10.20
2022-12-11T07:34:00.198Z,10.40
2022-12-11T07:35:00.195Z,10.10
2022-12-11T07:36:00.184Z,10.70
2022-12-11T07:37:00.188Z,11.00
2022-12-11T07:38:00.179Z,10.30
2022-12-11T07:39:00.172Z,10.80
2022-12-11T07:40:00.184Z,10.20
2022-12-11T07:41:00.161Z,10.60
2022-12-11T07:42:00.151Z,10.30
2022-12-11T07:43:00.149Z,10.80
2022-12-11T07:44:00.136Z,10.50
2022-12-11T07:45:00.152Z,10.30
2022-12-11T07:46:00.211Z,10.20
2022-12-11T07:47:00.149Z,10.50
2022-12-11T07:48:00.114Z,10.70
2022-12-11T07:49:00.111Z,10.40
2022-12-11T07:50:00.112Z,11.60
2022-12-11T07:51:00.103Z,10.70
2022-12-11T07:52:00.091Z,10.70
2022-12-11T07:53:00.089Z,11.00
2022-12-11T07:54:00.103Z,10.90
2022-12-11T07:55:00.072Z,10.80
2022-12-11T07:56:00.085Z,10.60
2022-12-11T07:57:00.082Z,10.80
2022-12-11T07:58:00.079Z,10.80
2022-12-11T07:59:00.074Z,10.60
2022-12-11T08:00:00.043Z,10.60
2022-12-11T08:01:00.115Z,10.80
2022-12-11T08:02:00.117Z,10.90
2022-12-11T08:03:00.051Z,11.60
2022-12-11T08:04:00.019Z,12.50
2022-12-11T08:05:00.020Z,11.90
2022-12-11T08:06:00.007Z,11.80
2022-12-11T08:07:00.002Z,11.10
2022-12-11T08:08:00.052Z,10.80
2022-12-11T08:08:59.995Z,11.00
2022-12-11T08:09:59.992Z,11.40
2022-12-11T08:10:59.986Z,11.00
2022-12-11T08:11:59.980Z,15.30
2022-12-11T08:12:59.972Z,10.60
2022-12-11T08:13:59.962Z,11.20
2022-12-11T08:14:59.960Z,10.90
2022-12-11T08:15:59.952Z,10.60
2022-12-11T08:17:00.013Z,11.00
2022-12-11T08:17:59.938Z,11.10
2022-12-11T08:18:59.959Z,12.20
2022-12-11T08:19:59.930Z,10.90
2022-12-11T08:20:59.920Z,10.90
2022-12-11T08:21:59.914Z,10.90
2022-12-11T08:22:59.912Z,10.80
2022-12-11T08:23:59.904Z,10.30
2022-12-11T08:24:59.905Z,10.10
2022-12-11T08:25:59.890Z,10.60
2022-12-11T08:26:59.886Z,10.00
2022-12-11T08:27:59.878Z,10.70
2022-12-11T08:28:59.878Z,10.80
2022-12-11T08:29:59.881Z,11.30
2022-12-11T08:30:59.911Z,11.10
2022-12-11T08:31:59.858Z,11.20
2022-12-11T08:32:59.855Z,10.80
2022-12-11T08:33:59.844Z,11.70
2022-12-11T08:34:59.881Z,10.90
2022-12-11T08:35:59.835Z,11.10
2022-12-11T08:36:59.830Z,10.30
2022-12-11T08:37:59.822Z,10.40
2022-12-11T08:38:59.815Z,11.10
2022-12-11T08:39:59.808Z,10.60
2022-12-11T08:40:59.804Z,10.80
2022-12-11T08:41:59.796Z,11.50
2022-12-11T08:42:59.791Z,11.40
2022-12-11T08:43:59.785Z,11.20
2022-12-11T08:44:59.792Z,11.30
2022-12-11T08:45:59.863Z,11.30
2022-12-11T08:46:59.771Z,10.70
2022-12-11T08:47:59.763Z,11.10
2022-12-11T08:48:59.760Z,10.90
2022-12-11T08:49:59.748Z,11.50
2022-12-11T08:50:59.763Z,11.00
2022-12-11T08:51:59.738Z,11.10
2022-12-11T08:52:59.734Z,11.10
2022-12-11T08:53:59.733Z,11.50
2022-12-11T08:54:59.720Z,11.60
2022-12-11T08:55:59.770Z,11.20
2022-12-11T08:56:59.717Z,11.30
2022-12-11T08:57:59.700Z,10.70
2022-12-11T08:58:59.702Z,10.30
2022-12-11T08:59:59.689Z,10.70
2022-12-11T09:00:59.759Z,10.70
2022-12-11T09:01:59.680Z,10.30
2022-12-11T09:02:59.675Z,10.50
2022-12-11T09:03:59.671Z,10.90
2022-12-11T09:04:59.666Z,10.80
2022-12-11T09:05:59.791Z,10.10
2022-12-11T09:06:59.743Z,10.30
2022-12-11T09:07:59.667Z,10.10
2022-12-11T09:08:59.649Z,10.40
2022-12-11T09:09:59.632Z,9.90
2022-12-11T09:10:59.628Z,10.40
2022-12-11T09:11:59.620Z,9.90
2022-12-11T09:12:59.622Z,11.20
2022-12-11T09:14:05.188Z,10.80
2022-12-11T09:14:59.608Z,10.40
2022-12-11T09:15:59.729Z,10.70
2022-12-11T09:16:59.601Z,10.40
2022-12-11T09:17:59.585Z,10.30
2022-12-11T09:18:59.588Z,10.70
2022-12-11T09:19:59.574Z,10.40
2022-12-11T09:20:59.592Z,10.50
2022-12-11T09:21:59.565Z,10.40
2022-12-11T09:22:59.585Z,10.60
2022-12-11T09:23:59.563Z,11.40
2022-12-11T09:24:59.548Z,11.20
2022-12-11T09:25:59.544Z,11.20
2022-12-11T09:26:59.539Z,11.10
2022-12-11T09:27:59.535Z,10.70
2022-12-11T09:28:59.524Z,12.60
2022-12-11T09:29:59.518Z,11.80
2022-12-11T09:30:59.545Z,10.40
2022-12-11T09:31:59.511Z,10.50
2022-12-11T09:32:59.505Z,10.60
2022-12-11T09:33:59.498Z,12.30
2022-12-11T09:34:59.498Z,10.60
2022-12-11T09:35:59.485Z,10.50
2022-12-11T09:36:59.483Z,11.00
2022-12-11T09:37:59.467Z,10.40
2022-12-11T09:38:59.504Z,10.20
2022-12-11T09:40:04.133Z,10.70
2022-12-11T09:40:59.455Z,10.90
2022-12-11T09:41:59.452Z,10.70
2022-12-11T09:42:59.443Z,10.30
2022-12-11T09:43:59.440Z,10.60
2022-12-11T09:44:59.435Z,11.20
2022-12-11T09:45:59.528Z,10.90
2022-12-11T09:46:59.421Z,11.00
2022-12-11T09:47:59.413Z,10.60
2022-12-11T09:48:59.415Z,9.90
2022-12-11T09:49:59.404Z,10.10
2022-12-11T09:50:59.397Z,10.30
2022-12-11T09:51:59.389Z,10.00
2022-12-11T09:52:59.386Z,10.30
2022-12-11T09:53:59.382Z,10.30
2022-12-11T09:54:59.396Z,10.60
2022-12-11T09:55:59.365Z,10.40
2022-12-11T09:56:59.361Z,10.60
2022-12-11T09:57:59.354Z,10.80
2022-12-11T09:58:59.347Z,10.10
2022-12-11T10:00:04.460Z,11.20
2022-12-11T10:00:59.346Z,10.30
2022-12-11T10:01:59.333Z,10.50
2022-12-11T10:02:59.399Z,10.60
2022-12-11T10:03:59.323Z,10.60
2022-12-11T10:04:59.322Z,10.20
2022-12-11T10:06:04.222Z,10.60
2022-12-11T10:06:59.309Z,10.10
2022-12-11T10:07:59.317Z,10.10
2022-12-11T10:08:59.301Z,10.20
2022-12-11T10:09:59.287Z,9.90
2022-12-11T10:13:42.591Z,9.90
2022-12-11T10:14:42.600Z,10.30
2022-12-11T10:15:42.619Z,10.70
2022-12-11T10:16:42.557Z,10.50
2022-12-11T10:17:42.550Z,10.00
2022-12-11T10:18:42.539Z,10.40
2022-12-11T10:19:42.534Z,10.20
2022-12-11T10:20:42.529Z,10.30
2022-12-11T10:21:42.528Z,10.90
2022-12-11T10:22:42.516Z,10.90
2022-12-11T10:23:42.511Z,10.70
2022-12-11T10:25:09.991Z,10.40
2022-12-11T10:25:42.505Z,10.70
2022-12-11T10:26:42.498Z,10.80
2022-12-11T10:27:42.493Z,10.40
2022-12-11T10:28:42.480Z,10.70
2022-12-11T10:29:42.502Z,10.90
2022-12-11T10:30:42.534Z,10.50
2022-12-11T10:31:42.482Z,10.90
2022-12-11T10:32:42.462Z,10.80
2022-12-11T10:33:42.466Z,10.30
2022-12-11T10:34:42.451Z,10.30
2022-12-11T10:35:42.449Z,11.00
2022-12-11T10:36:42.442Z,11.10
2022-12-11T10:37:42.439Z,10.70
2022-12-11T10:38:42.433Z,10.40
2022-12-11T10:39:42.430Z,11.00
2022-12-11T10:40:42.421Z,10.70
2022-12-11T10:41:42.413Z,10.60
2022-12-11T10:42:45.646Z,10.70
2022-12-11T10:43:42.410Z,10.00
2022-12-11T10:44:42.405Z,10.20
2022-12-11T10:45:42.414Z,10.60
2022-12-11T10:46:42.448Z,10.70
2022-12-11T10:47:42.384Z,10.40
2022-12-11T10:48:45.424Z,10.60
2022-12-11T10:49:42.374Z,10.90
2022-12-11T10:50:42.364Z,10.50
2022-12-11T10:51:42.360Z,10.80
2022-12-11T10:52:42.354Z,11.70
2022-12-11T10:53:42.349Z,10.10
2022-12-11T10:54:42.342Z,9.80
2022-12-11T10:55:42.339Z,10.00
2022-12-11T10:56:42.329Z,10.60
2022-12-11T10:57:42.337Z,10.70
2022-12-11T10:58:42.317Z,11.20
2022-12-11T10:59:42.317Z,10.70
2022-12-11T11:00:42.307Z,10.70
2022-12-11T11:01:42.380Z,9.70
2022-12-11T11:02:42.365Z,10.00
2022-12-11T11:03:42.304Z,9.70
2022-12-11T11:04:42.284Z,10.40
2022-12-11T11:05:47.730Z,10.40
2022-12-11T11:06:42.272Z,9.90
2022-12-11T11:07:42.268Z,10.40
2022-12-11T11:08:42.260Z,9.90
2022-12-11T11:09:42.263Z,9.60
2022-12-11T11:10:42.249Z,9.70
2022-12-11T11:11:42.247Z,9.90
2022-12-11T11:12:42.241Z,9.70
2022-12-11T11:13:42.238Z,9.60
2022-12-11T11:14:42.227Z,10.20
2022-12-11T11:15:42.265Z,10.00
2022-12-11T11:16:42.217Z,10.00
2022-12-11T11:17:51.285Z,10.10
2022-12-11T11:18:42.205Z,9.80
2022-12-11T11:19:42.208Z,9.90
2022-12-11T11:20:42.193Z,10.10
2022-12-11T11:21:42.195Z,9.90
2022-12-11T11:22:42.184Z,10.30
2022-12-11T11:23:46.215Z,10.50
2022-12-11T11:24:42.176Z,10.40
2022-12-11T11:25:42.172Z,10.10
2022-12-11T11:27:11.537Z,10.10
2022-12-11T11:27:42.163Z,9.90
2022-12-11T11:28:42.154Z,10.50
2022-12-11T11:29:42.149Z,10.40
2022-12-11T11:30:42.145Z,9.70
2022-12-11T11:31:42.220Z,9.90
2022-12-11T11:32:42.131Z,10.20
2022-12-11T11:33:42.153Z,9.70
2022-12-11T11:34:42.116Z,9.50
2022-12-11T11:35:45.632Z,10.70
2022-12-11T11:36:42.109Z,9.90
2022-12-11T11:37:42.106Z,9.60
2022-12-11T11:38:42.098Z,9.80
2022-12-11T11:39:42.105Z,8.10
2022-12-11T11:40:42.089Z,8.20
2022-12-11T11:41:42.085Z,8.20
2022-12-11T11:42:42.079Z,8.30
2022-12-11T11:43:42.079Z,8.20
2022-12-11T11:44:42.080Z,8.60
2022-12-11T11:45:42.068Z,9.10
2022-12-11T11:46:42.090Z,9.40
2022-12-11T11:47:42.051Z,9.40
2022-12-11T11:48:42.041Z,9.10
2022-12-11T11:49:42.063Z,9.40
2022-12-11T11:50:42.036Z,9.60
2022-12-11T11:51:42.031Z,9.70
2022-12-11T11:52:42.022Z,9.40
2022-12-11T11:53:42.025Z,9.40
2022-12-11T11:54:42.022Z,9.20
2022-12-11T11:55:42.011Z,9.90
2022-12-11T11:56:42.023Z,9.10
2022-12-11T11:57:42.005Z,9.40
2022-12-11T11:58:41.994Z,9.00
2022-12-11T11:59:41.990Z,9.10
2022-12-11T12:00:41.990Z,10.20
2022-12-11T12:01:41.981Z,9.50
2022-12-11T12:02:42.022Z,8.70
2022-12-11T12:03:41.962Z,9.10
2022-12-11T12:04:41.958Z,8.80
2022-12-11T12:05:41.994Z,9.30
2022-12-11T12:06:46.035Z,8.90
2022-12-11T12:07:41.948Z,8.70
2022-12-11T12:08:41.934Z,8.70
2022-12-11T12:09:42.031Z,8.70
2022-12-11T12:10:41.932Z,9.00
2022-12-11T12:11:41.922Z,9.00
2022-12-11T12:12:41.916Z,8.90
2022-12-11T12:13:49.561Z,9.10
2022-12-11T12:14:52.152Z,8.80
2022-12-11T12:15:41.907Z,10.00
2022-12-11T12:16:52.739Z,9.50
2022-12-11T12:17:41.894Z,9.20
2022-12-11T12:18:41.891Z,8.60
2022-12-11T12:19:41.906Z,9.30
2022-12-11T12:20:41.875Z,9.40
2022-12-11T12:21:41.900Z,9.70
2022-12-11T12:22:41.913Z,9.80
2022-12-11T12:23:41.866Z,11.10
2022-12-11T12:24:41.862Z,9.60
2022-12-11T12:25:41.855Z,9.40
2022-12-11T12:26:41.841Z,10.00
2022-12-11T12:27:57.308Z,10.20
2022-12-11T12:28:41.840Z,9.70
2022-12-11T12:29:41.832Z,9.60
2022-12-11T12:30:41.824Z,9.00
2022-12-11T12:31:41.880Z,9.30
2022-12-11T12:32:41.815Z,9.80
2022-12-11T12:33:41.813Z,9.30
2022-12-11T12:34:41.805Z,9.50
2022-12-11T12:35:41.795Z,9.40
2022-12-11T12:36:41.791Z,9.60
2022-12-11T12:37:41.803Z,9.50
2022-12-11T12:38:41.801Z,9.50
2022-12-11T12:39:41.776Z,9.00
2022-12-11T12:40:41.771Z,8.70
2022-12-11T12:41:41.768Z,9.50
2022-12-11T12:42:41.760Z,9.50
2022-12-11T12:43:41.783Z,9.20
2022-12-11T12:44:41.756Z,8.90
2022-12-11T12:45:41.824Z,9.20
2022-12-11T12:46:41.745Z,9.40
2022-12-11T12:47:41.737Z,9.60
2022-12-11T12:48:41.731Z,9.20
2022-12-11T12:49:41.728Z,8.90
2022-12-11T12:50:41.718Z,9.60
2022-12-11T12:51:41.719Z,9.30
2022-12-11T12:52:41.706Z,9.70
2022-12-11T12:53:41.735Z,9.80
2022-12-11T12:54:41.694Z,8.90
2022-12-11T12:55:41.699Z,9.20
2022-12-11T12:56:41.695Z,9.10
2022-12-11T12:57:41.692Z,9.80
2022-12-11T12:58:41.687Z,8.70